Weather History for K08D - January, 2013

Change the Weather History Date:

Monday, January 7, 2013

  Actual Average (KMOT) Record (KMOT)
Temperature  
Mean Temperature 20 °F 12 °F  
Max Temperature 26 °F 20 °F 56 °F (1914)
Min Temperature 8 °F 3 °F -34 °F (1937)
Degree Days  
Heating Degree Days 45 53  
Month to date heating degree days 371  
Since 1 July heating degree days 3966  
Moisture  
Dew Point 17 °F    
Average Humidity 82    
Maximum Humidity 93    
Minimum Humidity 69    
Precipitation  
Precipitation 0.00 in 0.02 in 0.48 in (1977)
Month to date precipitation 0.12  
Year to date precipitation 0.12  
Sea Level Pressure  
Sea Level Pressure 29.74 in    
Wind  
Wind Speed 16 mph (WSW)    
Max Wind Speed 23 mph    
Max Gust Speed 26 mph    
Visibility 10 miles    
Events      
T = Trace of Precipitation, MM = Missing Value Source: NWS Daily Summary

Daily Weather History Graph

Daily Weather History Graph

Search for Another Location

Airport or City:

Trip Planner

Search our weather history database for the weather conditions in past years. The results will help you decide how hot, cold, wet, or windy it might be!

Date:

Astronomy

Jan. 07, 2013 Rise Set
Actual Time 8:39 AM CST 5:12 PM CST
Civil Twilight 8:03 AM CST 5:48 PM CST
Nautical Twilight 7:24 AM CST 6:28 PM CST
Astronomical Twilight 6:46 AM CST 7:06 PM CST
Moon 4:00 AM CST (1/7) 1:29 PM CST (1/7)
Length of Visible Light 9h 45m
Length of Day
8h 33m
Waning Crescent, 22% of the Moon is Illuminated
Jan 7
Waning Crescent
Jan 11
New
Jan 18
First Quarter
Jan 26
Full
Feb 3
Last Quarter

Hourly Weather History & Observations

Time (CST) Temp. Windchill Dew Point Humidity Pressure Visibility Wind Dir Wind Speed Gust Speed Precip Events Conditions
12:15 AM 26.6 °F 12.0 °F 21.2 °F 80% 29.66 in 10.0 mi West 23.0 mph - N/A   Clear
12:35 AM 26.6 °F 13.1 °F 21.2 °F 80% 29.66 in 10.0 mi West 19.6 mph - N/A   Clear
12:55 AM 26.6 °F 13.4 °F 19.4 °F 74% 29.67 in 10.0 mi West 18.4 mph - N/A   Clear
1:15 AM 26.6 °F 13.4 °F 21.2 °F 80% 29.67 in 10.0 mi West 18.4 mph - N/A   Clear
1:35 AM 26.6 °F 13.1 °F 21.2 °F 80% 29.67 in 10.0 mi West 19.6 mph 24.2 mph N/A   Clear
1:55 AM 26.6 °F 13.1 °F 21.2 °F 80% 29.68 in 10.0 mi West 19.6 mph 25.3 mph N/A   Clear
2:15 AM 26.6 °F 13.8 °F 21.2 °F 80% 29.69 in 10.0 mi West 17.3 mph 24.2 mph N/A   Clear
2:35 AM 26.6 °F 14.3 °F 21.2 °F 80% 29.69 in 10.0 mi West 16.1 mph 23.0 mph N/A   Clear
2:55 AM 26.6 °F 14.3 °F 21.2 °F 80% 29.69 in 10.0 mi West 16.1 mph - N/A   Clear
3:15 AM 24.8 °F 12.4 °F 21.2 °F 86% 29.69 in 10.0 mi West 15.0 mph - N/A   Clear
3:35 AM 24.8 °F 11.5 °F 19.4 °F 80% 29.70 in 10.0 mi West 17.3 mph - N/A   Clear
3:55 AM 23.0 °F 8.7 °F 19.4 °F 86% 29.70 in 10.0 mi West 18.4 mph - N/A   Clear
4:15 AM 23.0 °F 8.0 °F 19.4 °F 86% 29.70 in 10.0 mi West 20.7 mph - N/A   Clear
4:35 AM 24.8 °F 10.7 °F 19.4 °F 80% 29.70 in 10.0 mi West 19.6 mph - N/A   Clear
4:55 AM 23.0 °F 8.0 °F 19.4 °F 86% 29.69 in 10.0 mi West 20.7 mph - N/A   Clear
5:15 AM 23.0 °F 8.0 °F 19.4 °F 86% 29.69 in 10.0 mi West 20.7 mph 26.5 mph N/A   Clear
5:35 AM 23.0 °F 8.7 °F 17.6 °F 80% 29.70 in 10.0 mi West 18.4 mph - N/A   Clear
5:55 AM 23.0 °F 8.3 °F 17.6 °F 80% 29.70 in 10.0 mi West 19.6 mph - N/A   Clear
6:35 AM 23.0 °F 8.0 °F 17.6 °F 80% 29.71 in 10.0 mi West 20.7 mph - N/A   Clear
6:55 AM 23.0 °F 8.3 °F 15.8 °F 74% 29.72 in 10.0 mi West 19.6 mph - N/A   Clear
7:15 AM 21.2 °F 6.4 °F 15.8 °F 80% 29.72 in 10.0 mi West 18.4 mph - N/A   Clear
7:35 AM 21.2 °F 6.8 °F 15.8 °F 80% 29.72 in 10.0 mi West 17.3 mph - N/A   Clear
7:55 AM 19.4 °F 7.2 °F 15.8 °F 86% 29.74 in 10.0 mi West 11.5 mph - N/A   Clear
8:15 AM 17.6 °F 3.2 °F 14.0 °F 86% 29.74 in 10.0 mi West 15.0 mph - N/A   Clear
8:35 AM 17.6 °F 4.3 °F 14.0 °F 86% 29.75 in 10.0 mi West 12.7 mph - N/A   Clear
8:55 AM 17.6 °F 2.2 °F 14.0 °F 86% 29.75 in 10.0 mi West 17.3 mph - N/A   Clear
9:15 AM 19.4 °F 5.5 °F 14.0 °F 80% 29.75 in 10.0 mi West 15.0 mph - N/A   Clear
9:35 AM 19.4 °F 5.0 °F 14.0 °F 80% 29.76 in 10.0 mi West 16.1 mph - N/A   Clear
9:55 AM 21.2 °F 5.6 °F 15.8 °F 80% 29.76 in 10.0 mi West 20.7 mph - N/A   Clear
10:15 AM 23.0 °F 10.1 °F 15.8 °F 74% 29.77 in 10.0 mi West 15.0 mph - N/A   Clear
10:35 AM 23.0 °F 11.7 °F 15.8 °F 74% 29.79 in 10.0 mi West 11.5 mph - N/A   Clear
10:55 AM 23.0 °F 11.1 °F 15.8 °F 74% 29.79 in 10.0 mi West 12.7 mph - N/A   Clear
11:15 AM 23.0 °F 9.6 °F 15.8 °F 74% 29.79 in 10.0 mi West 16.1 mph - N/A   Clear
11:35 AM 24.8 °F 10.3 °F 17.6 °F 74% 29.79 in 10.0 mi West 20.7 mph - N/A   Clear
11:55 AM 24.8 °F 11.5 °F 17.6 °F 74% 29.79 in 10.0 mi West 17.3 mph - N/A   Clear
12:15 PM 24.8 °F 11.5 °F 17.6 °F 74% 29.79 in 10.0 mi West 17.3 mph - N/A   Clear
12:35 PM 24.8 °F 13.4 °F 17.6 °F 74% 29.79 in 10.0 mi West 12.7 mph - N/A   Clear
1:15 PM 26.6 °F 14.7 °F 17.6 °F 69% 29.78 in 10.0 mi West 15.0 mph - N/A   Clear
1:35 PM 26.6 °F 15.2 °F 17.6 °F 69% 29.78 in 10.0 mi West 13.8 mph - N/A   Clear
1:55 PM 26.6 °F 15.7 °F 17.6 °F 69% 29.77 in 10.0 mi West 12.7 mph - N/A   Clear
2:15 PM 26.6 °F 16.8 °F 17.6 °F 69% 29.77 in 10.0 mi West 10.4 mph - N/A   Clear
2:35 PM 26.6 °F 17.5 °F 19.4 °F 74% 29.77 in 10.0 mi WSW 9.2 mph - N/A   Clear
2:55 PM 24.8 °F 15.3 °F 19.4 °F 80% 29.77 in 10.0 mi WSW 9.2 mph - N/A   Clear
3:15 PM 24.8 °F 14.6 °F 19.4 °F 80% 29.78 in 10.0 mi West 10.4 mph - N/A   Clear
3:35 PM 24.8 °F 13.4 °F 17.6 °F 74% 29.78 in 10.0 mi West 12.7 mph - N/A   Clear
3:55 PM 24.8 °F 14.6 °F 17.6 °F 74% 29.78 in 10.0 mi West 10.4 mph - N/A   Clear
4:15 PM 23.0 °F 12.4 °F 17.6 °F 80% 29.78 in 10.0 mi WSW 10.4 mph - N/A   Clear
4:35 PM 23.0 °F 13.1 °F 17.6 °F 80% 29.78 in 10.0 mi West 9.2 mph - N/A   Clear
5:15 PM 19.4 °F 14.3 °F 15.8 °F 86% 29.77 in 10.0 mi SSW 3.5 mph - N/A   Clear
5:35 PM 19.4 °F 14.3 °F 15.8 °F 86% 29.77 in 10.0 mi SW 3.5 mph - N/A   Clear
5:55 PM 17.6 °F 9.3 °F 14.0 °F 86% 29.77 in 10.0 mi SW 5.8 mph - N/A   Clear
6:15 PM 17.6 °F 8.2 °F 14.0 °F 86% 29.77 in 10.0 mi SW 6.9 mph - N/A   Clear
6:35 PM 14.0 °F 6.5 °F 10.4 °F 86% 29.76 in 10.0 mi SW 4.6 mph - N/A   Clear
6:55 PM 15.8 °F 7.2 °F 14.0 °F 93% 29.75 in 10.0 mi SSW 5.8 mph - N/A   Clear
7:15 PM 15.8 °F 5.1 °F 14.0 °F 93% 29.76 in 10.0 mi SW 8.1 mph - N/A   Clear
7:35 PM 14.0 °F 2.0 °F 12.2 °F 93% 29.76 in 10.0 mi SW 9.2 mph - N/A   Clear
7:55 PM 15.8 °F 2.7 °F 14.0 °F 93% 29.75 in 10.0 mi SW 11.5 mph - N/A   Clear
8:15 PM 15.8 °F 4.2 °F 14.0 °F 93% 29.75 in 10.0 mi SW 9.2 mph - N/A   Clear
8:55 PM 17.6 °F 9.3 °F 14.0 °F 86% 29.73 in 10.0 mi SW 5.8 mph - N/A   Clear
9:15 PM 17.6 °F 10.7 °F 14.0 °F 86% 29.72 in 10.0 mi SW 4.6 mph - N/A   Clear
9:35 PM 15.8 °F 10.2 °F 12.2 °F 86% 29.72 in 10.0 mi SW 3.5 mph - N/A   Clear
10:15 PM 15.8 °F 7.2 °F 14.0 °F 93% 29.70 in 10.0 mi SW 5.8 mph - N/A   Clear
10:35 PM 15.8 °F 7.2 °F 14.0 °F 93% 29.70 in 10.0 mi SW 5.8 mph - N/A   Clear
10:55 PM 15.8 °F 8.6 °F 14.0 °F 93% 29.69 in 10.0 mi SSE 4.6 mph - N/A   Clear
11:15 PM 14.0 °F 8.2 °F 10.4 °F 86% 29.68 in 10.0 mi SSE 3.5 mph - N/A   Clear
11:35 PM 8.6 °F - 6.8 °F 92% 29.68 in 10.0 mi Calm Calm - N/A   Clear